sensor_id;sensor_type;location;lat;lon;timestamp;P1;durP1;ratioP1;P2;durP2;ratioP2
75655;SDS011;64252;51.094;13.714;2022-11-04T00:01:52;10.95;;;5.25;;
75655;SDS011;64252;51.094;13.714;2022-11-04T00:04:19;13.77;;;5.20;;
75655;SDS011;64252;51.094;13.714;2022-11-04T00:06:46;12.90;;;5.90;;
75655;SDS011;64252;51.094;13.714;2022-11-04T00:09:20;11.05;;;5.13;;
75655;SDS011;64252;51.094;13.714;2022-11-04T00:11:46;11.40;;;4.97;;
75655;SDS011;64252;51.094;13.714;2022-11-04T00:14:31;9.70;;;5.13;;
75655;SDS011;64252;51.094;13.714;2022-11-04T00:16:57;11.07;;;4.75;;
75655;SDS011;64252;51.094;13.714;2022-11-04T00:19:41;11.60;;;5.60;;
75655;SDS011;64252;51.094;13.714;2022-11-04T00:22:25;11.75;;;5.85;;
75655;SDS011;64252;51.094;13.714;2022-11-04T00:25:10;12.50;;;6.45;;
75655;SDS011;64252;51.094;13.714;2022-11-04T00:28:00;11.68;;;5.75;;
75655;SDS011;64252;51.094;13.714;2022-11-04T00:30:47;13.30;;;5.28;;
75655;SDS011;64252;51.094;13.714;2022-11-04T00:33:12;14.13;;;6.22;;
75655;SDS011;64252;51.094;13.714;2022-11-04T00:35:50;12.02;;;5.75;;
75655;SDS011;64252;51.094;13.714;2022-11-04T00:38:18;12.55;;;6.43;;
75655;SDS011;64252;51.094;13.714;2022-11-04T00:40:43;13.10;;;6.30;;
75655;SDS011;64252;51.094;13.714;2022-11-04T00:43:09;14.80;;;7.03;;
75655;SDS011;64252;51.094;13.714;2022-11-04T00:45:35;14.48;;;6.03;;
75655;SDS011;64252;51.094;13.714;2022-11-04T00:48:00;12.23;;;6.47;;
75655;SDS011;64252;51.094;13.714;2022-11-04T00:50:26;11.32;;;6.32;;
75655;SDS011;64252;51.094;13.714;2022-11-04T00:52:59;15.80;;;6.90;;
75655;SDS011;64252;51.094;13.714;2022-11-04T00:55:25;16.30;;;7.88;;
75655;SDS011;64252;51.094;13.714;2022-11-04T00:57:50;14.43;;;7.15;;
75655;SDS011;64252;51.094;13.714;2022-11-04T01:00:16;14.68;;;8.10;;
75655;SDS011;64252;51.094;13.714;2022-11-04T01:02:42;13.55;;;6.95;;
75655;SDS011;64252;51.094;13.714;2022-11-04T01:05:08;13.43;;;7.38;;
75655;SDS011;64252;51.094;13.714;2022-11-04T01:07:33;15.38;;;7.85;;
75655;SDS011;64252;51.094;13.714;2022-11-04T01:09:59;17.25;;;8.02;;
75655;SDS011;64252;51.094;13.714;2022-11-04T01:12:24;18.33;;;8.25;;
75655;SDS011;64252;51.094;13.714;2022-11-04T01:14:50;13.65;;;6.53;;
75655;SDS011;64252;51.094;13.714;2022-11-04T01:17:15;16.00;;;8.23;;
75655;SDS011;64252;51.094;13.714;2022-11-04T01:19:41;15.35;;;8.82;;
75655;SDS011;64252;51.094;13.714;2022-11-04T01:22:07;16.27;;;7.68;;
75655;SDS011;64252;51.094;13.714;2022-11-04T01:24:32;20.67;;;8.75;;
75655;SDS011;64252;51.094;13.714;2022-11-04T01:26:57;21.60;;;9.65;;
75655;SDS011;64252;51.094;13.714;2022-11-04T01:29:23;14.48;;;7.88;;
75655;SDS011;64252;51.094;13.714;2022-11-04T01:31:49;16.88;;;9.07;;
75655;SDS011;64252;51.094;13.714;2022-11-04T01:34:14;17.65;;;9.45;;
75655;SDS011;64252;51.094;13.714;2022-11-04T01:36:40;17.00;;;9.70;;
75655;SDS011;64252;51.094;13.714;2022-11-04T01:39:05;19.25;;;9.40;;
75655;SDS011;64252;51.094;13.714;2022-11-04T01:41:31;18.00;;;9.95;;
75655;SDS011;64252;51.094;13.714;2022-11-04T01:47:07;17.60;;;9.45;;
75655;SDS011;64252;51.094;13.714;2022-11-04T01:49:43;20.33;;;10.48;;
75655;SDS011;64252;51.094;13.714;2022-11-04T01:52:21;23.65;;;11.43;;
75655;SDS011;64252;51.094;13.714;2022-11-04T01:55:02;20.98;;;9.90;;
75655;SDS011;64252;51.094;13.714;2022-11-04T01:57:34;23.75;;;11.73;;
75655;SDS011;64252;51.094;13.714;2022-11-04T02:00:04;18.98;;;10.48;;
75655;SDS011;64252;51.094;13.714;2022-11-04T02:02:49;22.10;;;11.05;;
75655;SDS011;64252;51.094;13.714;2022-11-04T02:05:15;19.55;;;11.20;;
75655;SDS011;64252;51.094;13.714;2022-11-04T02:07:41;23.45;;;10.85;;
75655;SDS011;64252;51.094;13.714;2022-11-04T02:10:07;23.63;;;12.38;;
75655;SDS011;64252;51.094;13.714;2022-11-04T02:12:33;20.92;;;11.07;;
75655;SDS011;64252;51.094;13.714;2022-11-04T02:15:15;22.77;;;12.63;;
75655;SDS011;64252;51.094;13.714;2022-11-04T02:23:25;19.90;;;11.55;;
75655;SDS011;64252;51.094;13.714;2022-11-04T02:26:18;20.30;;;10.30;;
75655;SDS011;64252;51.094;13.714;2022-11-04T02:34:49;16.90;;;10.15;;
75655;SDS011;64252;51.094;13.714;2022-11-04T02:45:58;23.00;;;12.65;;
75655;SDS011;64252;51.094;13.714;2022-11-04T02:48:45;24.17;;;12.48;;
75655;SDS011;64252;51.094;13.714;2022-11-04T02:51:28;24.25;;;13.02;;
75655;SDS011;64252;51.094;13.714;2022-11-04T02:56:59;23.02;;;11.15;;
75655;SDS011;64252;51.094;13.714;2022-11-04T02:59:38;22.80;;;12.05;;
75655;SDS011;64252;51.094;13.714;2022-11-04T03:02:14;23.00;;;11.98;;
75655;SDS011;64252;51.094;13.714;2022-11-04T03:04:44;25.10;;;12.50;;
75655;SDS011;64252;51.094;13.714;2022-11-04T03:07:14;21.35;;;11.55;;
75655;SDS011;64252;51.094;13.714;2022-11-04T03:09:43;19.52;;;10.80;;
75655;SDS011;64252;51.094;13.714;2022-11-04T03:12:14;21.75;;;12.15;;
75655;SDS011;64252;51.094;13.714;2022-11-04T03:14:45;27.52;;;13.60;;
75655;SDS011;64252;51.094;13.714;2022-11-04T03:17:19;19.30;;;10.65;;
75655;SDS011;64252;51.094;13.714;2022-11-04T03:19:55;17.33;;;9.60;;
75655;SDS011;64252;51.094;13.714;2022-11-04T03:22:24;18.20;;;10.90;;
75655;SDS011;64252;51.094;13.714;2022-11-04T03:24:53;18.85;;;10.20;;
75655;SDS011;64252;51.094;13.714;2022-11-04T03:32:39;16.73;;;9.48;;
75655;SDS011;64252;51.094;13.714;2022-11-04T03:35:24;17.63;;;10.05;;
75655;SDS011;64252;51.094;13.714;2022-11-04T03:37:52;20.58;;;9.32;;
75655;SDS011;64252;51.094;13.714;2022-11-04T03:40:18;18.10;;;9.82;;
75655;SDS011;64252;51.094;13.714;2022-11-04T03:42:46;17.58;;;10.02;;
75655;SDS011;64252;51.094;13.714;2022-11-04T03:45:16;19.58;;;10.77;;
75655;SDS011;64252;51.094;13.714;2022-11-04T03:47:42;16.88;;;10.68;;
75655;SDS011;64252;51.094;13.714;2022-11-04T03:50:19;15.35;;;10.20;;
75655;SDS011;64252;51.094;13.714;2022-11-04T03:52:51;19.90;;;11.02;;
75655;SDS011;64252;51.094;13.714;2022-11-04T03:55:17;19.95;;;9.23;;
75655;SDS011;64252;51.094;13.714;2022-11-04T03:57:57;17.52;;;9.85;;
75655;SDS011;64252;51.094;13.714;2022-11-04T04:00:33;16.67;;;11.07;;
75655;SDS011;64252;51.094;13.714;2022-11-04T04:03:47;14.15;;;8.68;;
75655;SDS011;64252;51.094;13.714;2022-11-04T04:06:02;17.38;;;9.77;;
75655;SDS011;64252;51.094;13.714;2022-11-04T04:08:42;23.95;;;14.70;;
75655;SDS011;64252;51.094;13.714;2022-11-04T04:11:22;20.02;;;10.73;;
75655;SDS011;64252;51.094;13.714;2022-11-04T04:13:52;29.67;;;15.30;;
75655;SDS011;64252;51.094;13.714;2022-11-04T04:16:41;22.58;;;12.13;;
75655;SDS011;64252;51.094;13.714;2022-11-04T04:21:52;18.17;;;10.10;;
75655;SDS011;64252;51.094;13.714;2022-11-04T04:24:25;19.85;;;11.10;;
75655;SDS011;64252;51.094;13.714;2022-11-04T04:27:14;20.38;;;10.73;;
75655;SDS011;64252;51.094;13.714;2022-11-04T04:29:56;18.02;;;10.65;;
75655;SDS011;64252;51.094;13.714;2022-11-04T04:32:25;18.92;;;10.00;;
75655;SDS011;64252;51.094;13.714;2022-11-04T04:34:53;24.42;;;13.40;;
75655;SDS011;64252;51.094;13.714;2022-11-04T04:37:38;19.75;;;10.57;;
75655;SDS011;64252;51.094;13.714;2022-11-04T04:40:05;20.02;;;10.90;;
75655;SDS011;64252;51.094;13.714;2022-11-04T04:42:54;19.30;;;10.32;;
75655;SDS011;64252;51.094;13.714;2022-11-04T04:45:40;18.73;;;10.63;;
75655;SDS011;64252;51.094;13.714;2022-11-04T04:48:08;17.30;;;10.02;;
75655;SDS011;64252;51.094;13.714;2022-11-04T04:50:36;17.23;;;8.70;;
75655;SDS011;64252;51.094;13.714;2022-11-04T04:53:06;16.92;;;10.63;;
75655;SDS011;64252;51.094;13.714;2022-11-04T04:55:32;16.98;;;10.48;;
75655;SDS011;64252;51.094;13.714;2022-11-04T04:57:57;17.48;;;10.25;;
75655;SDS011;64252;51.094;13.714;2022-11-04T05:00:24;18.80;;;10.15;;
75655;SDS011;64252;51.094;13.714;2022-11-04T05:02:51;17.98;;;10.15;;
75655;SDS011;64252;51.094;13.714;2022-11-04T05:05:17;24.08;;;13.52;;
75655;SDS011;64252;51.094;13.714;2022-11-04T05:07:43;20.30;;;11.23;;
75655;SDS011;64252;51.094;13.714;2022-11-04T05:10:09;17.38;;;10.82;;
75655;SDS011;64252;51.094;13.714;2022-11-04T05:12:37;20.95;;;11.07;;
75655;SDS011;64252;51.094;13.714;2022-11-04T05:15:32;26.33;;;13.52;;
75655;SDS011;64252;51.094;13.714;2022-11-04T05:18:01;27.15;;;14.80;;
75655;SDS011;64252;51.094;13.714;2022-11-04T05:20:27;23.75;;;13.18;;
75655;SDS011;64252;51.094;13.714;2022-11-04T05:22:54;26.95;;;15.23;;
75655;SDS011;64252;51.094;13.714;2022-11-04T05:25:20;23.73;;;13.18;;
75655;SDS011;64252;51.094;13.714;2022-11-04T05:27:45;24.98;;;14.65;;
75655;SDS011;64252;51.094;13.714;2022-11-04T05:30:11;24.27;;;13.77;;
75655;SDS011;64252;51.094;13.714;2022-11-04T05:32:36;20.55;;;12.27;;
75655;SDS011;64252;51.094;13.714;2022-11-04T05:35:02;24.73;;;14.90;;
75655;SDS011;64252;51.094;13.714;2022-11-04T05:37:28;29.40;;;15.32;;
75655;SDS011;64252;51.094;13.714;2022-11-04T05:39:53;26.98;;;15.85;;
75655;SDS011;64252;51.094;13.714;2022-11-04T05:42:18;22.08;;;13.80;;
75655;SDS011;64252;51.094;13.714;2022-11-04T05:44:44;26.75;;;15.20;;
75655;SDS011;64252;51.094;13.714;2022-11-04T05:47:10;33.03;;;16.17;;
75655;SDS011;64252;51.094;13.714;2022-11-04T05:49:35;27.67;;;15.15;;
75655;SDS011;64252;51.094;13.714;2022-11-04T05:52:00;27.60;;;14.90;;
75655;SDS011;64252;51.094;13.714;2022-11-04T05:54:26;30.30;;;16.02;;
75655;SDS011;64252;51.094;13.714;2022-11-04T05:56:52;26.88;;;15.48;;
75655;SDS011;64252;51.094;13.714;2022-11-04T05:59:18;33.50;;;17.13;;
75655;SDS011;64252;51.094;13.714;2022-11-04T06:01:43;29.20;;;15.65;;
75655;SDS011;64252;51.094;13.714;2022-11-04T06:04:13;27.63;;;14.95;;
75655;SDS011;64252;51.094;13.714;2022-11-04T06:06:41;29.55;;;16.80;;
75655;SDS011;64252;51.094;13.714;2022-11-04T06:09:07;27.33;;;13.82;;
75655;SDS011;64252;51.094;13.714;2022-11-04T06:11:34;33.22;;;16.75;;
75655;SDS011;64252;51.094;13.714;2022-11-04T06:14:00;32.67;;;17.55;;
75655;SDS011;64252;51.094;13.714;2022-11-04T06:16:26;37.28;;;20.92;;
75655;SDS011;64252;51.094;13.714;2022-11-04T06:18:51;32.55;;;18.08;;
75655;SDS011;64252;51.094;13.714;2022-11-04T06:23:46;32.15;;;16.75;;
75655;SDS011;64252;51.094;13.714;2022-11-04T06:26:12;28.90;;;16.10;;
75655;SDS011;64252;51.094;13.714;2022-11-04T06:28:39;33.00;;;18.48;;
75655;SDS011;64252;51.094;13.714;2022-11-04T06:31:05;42.90;;;22.63;;
75655;SDS011;64252;51.094;13.714;2022-11-04T06:33:33;54.65;;;26.48;;
75655;SDS011;64252;51.094;13.714;2022-11-04T06:35:59;37.50;;;19.98;;
75655;SDS011;64252;51.094;13.714;2022-11-04T06:38:29;40.40;;;20.23;;
75655;SDS011;64252;51.094;13.714;2022-11-04T06:40:56;40.95;;;21.50;;
75655;SDS011;64252;51.094;13.714;2022-11-04T06:43:22;42.53;;;21.45;;
75655;SDS011;64252;51.094;13.714;2022-11-04T06:45:54;42.25;;;21.58;;
75655;SDS011;64252;51.094;13.714;2022-11-04T06:50:55;39.42;;;20.02;;
75655;SDS011;64252;51.094;13.714;2022-11-04T06:53:24;37.88;;;19.13;;
75655;SDS011;64252;51.094;13.714;2022-11-04T06:55:51;31.17;;;17.10;;
75655;SDS011;64252;51.094;13.714;2022-11-04T06:58:17;36.13;;;18.33;;
75655;SDS011;64252;51.094;13.714;2022-11-04T07:00:43;37.45;;;19.52;;
75655;SDS011;64252;51.094;13.714;2022-11-04T07:03:10;33.58;;;16.63;;
75655;SDS011;64252;51.094;13.714;2022-11-04T07:05:35;30.00;;;17.23;;
75655;SDS011;64252;51.094;13.714;2022-11-04T07:08:01;41.55;;;20.38;;
75655;SDS011;64252;51.094;13.714;2022-11-04T07:10:26;34.03;;;17.80;;
75655;SDS011;64252;51.094;13.714;2022-11-04T07:12:51;34.03;;;17.67;;
75655;SDS011;64252;51.094;13.714;2022-11-04T07:15:19;32.05;;;17.02;;
75655;SDS011;64252;51.094;13.714;2022-11-04T07:17:44;26.48;;;14.48;;
75655;SDS011;64252;51.094;13.714;2022-11-04T07:20:10;27.40;;;14.10;;
75655;SDS011;64252;51.094;13.714;2022-11-04T07:22:37;24.95;;;13.00;;
75655;SDS011;64252;51.094;13.714;2022-11-04T07:25:03;23.17;;;13.25;;
75655;SDS011;64252;51.094;13.714;2022-11-04T07:27:29;22.77;;;11.20;;
75655;SDS011;64252;51.094;13.714;2022-11-04T07:29:55;25.17;;;13.27;;
75655;SDS011;64252;51.094;13.714;2022-11-04T07:32:20;20.30;;;11.52;;
75655;SDS011;64252;51.094;13.714;2022-11-04T07:34:46;20.33;;;11.43;;
75655;SDS011;64252;51.094;13.714;2022-11-04T07:37:11;17.60;;;10.10;;
75655;SDS011;64252;51.094;13.714;2022-11-04T07:39:37;19.95;;;11.05;;
75655;SDS011;64252;51.094;13.714;2022-11-04T07:42:02;16.25;;;8.55;;
75655;SDS011;64252;51.094;13.714;2022-11-04T07:44:27;16.55;;;9.60;;
75655;SDS011;64252;51.094;13.714;2022-11-04T07:46:53;22.65;;;12.13;;
75655;SDS011;64252;51.094;13.714;2022-11-04T07:49:18;14.40;;;7.93;;
75655;SDS011;64252;51.094;13.714;2022-11-04T07:51:44;17.17;;;8.70;;
75655;SDS011;64252;51.094;13.714;2022-11-04T07:54:09;13.20;;;6.90;;
75655;SDS011;64252;51.094;13.714;2022-11-04T07:56:34;14.52;;;7.68;;
75655;SDS011;64252;51.094;13.714;2022-11-04T07:59:00;9.70;;;5.47;;
75655;SDS011;64252;51.094;13.714;2022-11-04T08:01:25;12.82;;;7.35;;
75655;SDS011;64252;51.094;13.714;2022-11-04T08:03:51;14.45;;;7.95;;
75655;SDS011;64252;51.094;13.714;2022-11-04T08:06:17;17.45;;;8.45;;
75655;SDS011;64252;51.094;13.714;2022-11-04T08:08:44;16.67;;;9.52;;
75655;SDS011;64252;51.094;13.714;2022-11-04T08:11:13;13.82;;;8.00;;
75655;SDS011;64252;51.094;13.714;2022-11-04T08:13:40;14.90;;;8.57;;
75655;SDS011;64252;51.094;13.714;2022-11-04T08:16:07;12.52;;;7.28;;
75655;SDS011;64252;51.094;13.714;2022-11-04T08:18:37;11.50;;;7.03;;
75655;SDS011;64252;51.094;13.714;2022-11-04T08:21:04;10.68;;;6.63;;
75655;SDS011;64252;51.094;13.714;2022-11-04T08:23:30;17.17;;;8.63;;
75655;SDS011;64252;51.094;13.714;2022-11-04T08:25:56;10.93;;;6.25;;
75655;SDS011;64252;51.094;13.714;2022-11-04T08:28:22;12.48;;;6.63;;
75655;SDS011;64252;51.094;13.714;2022-11-04T08:31:05;9.98;;;5.40;;
75655;SDS011;64252;51.094;13.714;2022-11-04T08:33:41;10.77;;;5.70;;
75655;SDS011;64252;51.094;13.714;2022-11-04T08:36:09;10.90;;;6.18;;
75655;SDS011;64252;51.094;13.714;2022-11-04T08:38:37;11.15;;;5.70;;
75655;SDS011;64252;51.094;13.714;2022-11-04T08:41:03;8.50;;;4.72;;
75655;SDS011;64252;51.094;13.714;2022-11-04T08:43:30;8.10;;;4.95;;
75655;SDS011;64252;51.094;13.714;2022-11-04T08:45:55;14.45;;;7.32;;
75655;SDS011;64252;51.094;13.714;2022-11-04T08:48:21;13.25;;;7.93;;
75655;SDS011;64252;51.094;13.714;2022-11-04T08:50:48;8.73;;;4.65;;
75655;SDS011;64252;51.094;13.714;2022-11-04T08:53:15;9.35;;;4.35;;
75655;SDS011;64252;51.094;13.714;2022-11-04T08:55:40;8.30;;;4.10;;
75655;SDS011;64252;51.094;13.714;2022-11-04T08:58:06;7.22;;;3.53;;
75655;SDS011;64252;51.094;13.714;2022-11-04T09:00:31;8.27;;;3.80;;
75655;SDS011;64252;51.094;13.714;2022-11-04T09:02:57;9.38;;;4.68;;
75655;SDS011;64252;51.094;13.714;2022-11-04T09:05:24;7.55;;;3.85;;
75655;SDS011;64252;51.094;13.714;2022-11-04T09:07:50;7.78;;;3.78;;
75655;SDS011;64252;51.094;13.714;2022-11-04T09:10:15;8.80;;;4.05;;
75655;SDS011;64252;51.094;13.714;2022-11-04T09:12:41;7.72;;;3.42;;
75655;SDS011;64252;51.094;13.714;2022-11-04T09:15:08;7.13;;;3.78;;
75655;SDS011;64252;51.094;13.714;2022-11-04T09:17:33;10.95;;;5.45;;
75655;SDS011;64252;51.094;13.714;2022-11-04T09:19:59;9.23;;;4.00;;
75655;SDS011;64252;51.094;13.714;2022-11-04T09:22:24;7.80;;;4.53;;
75655;SDS011;64252;51.094;13.714;2022-11-04T09:24:50;10.98;;;5.22;;
75655;SDS011;64252;51.094;13.714;2022-11-04T09:27:16;9.90;;;5.28;;
75655;SDS011;64252;51.094;13.714;2022-11-04T09:29:41;9.02;;;4.18;;
75655;SDS011;64252;51.094;13.714;2022-11-04T09:32:07;7.93;;;4.55;;
75655;SDS011;64252;51.094;13.714;2022-11-04T09:34:33;15.63;;;4.07;;
75655;SDS011;64252;51.094;13.714;2022-11-04T09:36:59;6.18;;;3.55;;
75655;SDS011;64252;51.094;13.714;2022-11-04T09:39:25;7.43;;;3.90;;
75655;SDS011;64252;51.094;13.714;2022-11-04T09:42:03;8.20;;;3.70;;
75655;SDS011;64252;51.094;13.714;2022-11-04T09:47:25;10.38;;;5.60;;
75655;SDS011;64252;51.094;13.714;2022-11-04T09:49:52;8.63;;;4.65;;
75655;SDS011;64252;51.094;13.714;2022-11-04T09:52:23;9.43;;;5.32;;
75655;SDS011;64252;51.094;13.714;2022-11-04T09:55:03;10.48;;;5.05;;
75655;SDS011;64252;51.094;13.714;2022-11-04T09:57:35;9.18;;;4.15;;
75655;SDS011;64252;51.094;13.714;2022-11-04T10:00:01;8.75;;;4.53;;
75655;SDS011;64252;51.094;13.714;2022-11-04T10:02:39;7.28;;;3.95;;
75655;SDS011;64252;51.094;13.714;2022-11-04T10:05:30;8.95;;;5.15;;
75655;SDS011;64252;51.094;13.714;2022-11-04T10:11:15;16.52;;;8.85;;
75655;SDS011;64252;51.094;13.714;2022-11-04T10:14:10;11.70;;;6.63;;
75655;SDS011;64252;51.094;13.714;2022-11-04T10:22:15;25.15;;;14.85;;
75655;SDS011;64252;51.094;13.714;2022-11-04T10:24:56;10.82;;;5.75;;
75655;SDS011;64252;51.094;13.714;2022-11-04T10:27:30;19.63;;;11.13;;
75655;SDS011;64252;51.094;13.714;2022-11-04T10:30:01;16.63;;;7.20;;
75655;SDS011;64252;51.094;13.714;2022-11-04T10:32:39;9.85;;;5.43;;
75655;SDS011;64252;51.094;13.714;2022-11-04T10:37:37;12.88;;;6.85;;
75655;SDS011;64252;51.094;13.714;2022-11-04T10:43:05;10.20;;;4.97;;
75655;SDS011;64252;51.094;13.714;2022-11-04T10:45:40;7.72;;;3.97;;
75655;SDS011;64252;51.094;13.714;2022-11-04T10:48:16;11.38;;;5.50;;
75655;SDS011;64252;51.094;13.714;2022-11-04T10:50:54;9.50;;;4.30;;
75655;SDS011;64252;51.094;13.714;2022-11-04T10:53:30;11.00;;;5.07;;
75655;SDS011;64252;51.094;13.714;2022-11-04T10:56:02;12.43;;;5.35;;
75655;SDS011;64252;51.094;13.714;2022-11-04T10:58:47;13.10;;;5.10;;
75655;SDS011;64252;51.094;13.714;2022-11-04T11:03:47;13.25;;;5.43;;
75655;SDS011;64252;51.094;13.714;2022-11-04T11:06:14;9.95;;;4.55;;
75655;SDS011;64252;51.094;13.714;2022-11-04T11:08:45;10.85;;;4.47;;
75655;SDS011;64252;51.094;13.714;2022-11-04T11:11:11;10.38;;;4.28;;
75655;SDS011;64252;51.094;13.714;2022-11-04T11:13:40;11.40;;;4.57;;
75655;SDS011;64252;51.094;13.714;2022-11-04T11:16:17;8.15;;;3.53;;
75655;SDS011;64252;51.094;13.714;2022-11-04T11:18:44;5.82;;;3.38;;
75655;SDS011;64252;51.094;13.714;2022-11-04T11:21:45;7.70;;;3.03;;
75655;SDS011;64252;51.094;13.714;2022-11-04T11:24:25;8.63;;;3.90;;
75655;SDS011;64252;51.094;13.714;2022-11-04T11:26:58;7.60;;;3.47;;
75655;SDS011;64252;51.094;13.714;2022-11-04T11:29:30;7.95;;;3.80;;
75655;SDS011;64252;51.094;13.714;2022-11-04T11:32:04;9.23;;;4.13;;
75655;SDS011;64252;51.094;13.714;2022-11-04T11:34:41;9.40;;;4.18;;
75655;SDS011;64252;51.094;13.714;2022-11-04T11:37:29;8.50;;;3.90;;
75655;SDS011;64252;51.094;13.714;2022-11-04T11:39:56;9.57;;;4.22;;
75655;SDS011;64252;51.094;13.714;2022-11-04T11:42:22;8.57;;;4.05;;
75655;SDS011;64252;51.094;13.714;2022-11-04T11:44:52;6.28;;;3.38;;
75655;SDS011;64252;51.094;13.714;2022-11-04T11:49:45;6.93;;;3.95;;
75655;SDS011;64252;51.094;13.714;2022-11-04T11:52:31;6.68;;;3.38;;
75655;SDS011;64252;51.094;13.714;2022-11-04T12:03:46;6.13;;;2.92;;
75655;SDS011;64252;51.094;13.714;2022-11-04T12:17:08;5.70;;;2.35;;
75655;SDS011;64252;51.094;13.714;2022-11-04T12:25:24;5.47;;;2.85;;
75655;SDS011;64252;51.094;13.714;2022-11-04T12:31:01;6.30;;;3.13;;
75655;SDS011;64252;51.094;13.714;2022-11-04T12:36:42;4.78;;;2.70;;
75655;SDS011;64252;51.094;13.714;2022-11-04T12:42:11;6.95;;;2.58;;
75655;SDS011;64252;51.094;13.714;2022-11-04T12:44:39;7.47;;;3.78;;
75655;SDS011;64252;51.094;13.714;2022-11-04T12:47:37;4.82;;;2.67;;
75655;SDS011;64252;51.094;13.714;2022-11-04T12:55:48;5.22;;;2.90;;
75655;SDS011;64252;51.094;13.714;2022-11-04T12:58:24;6.63;;;3.20;;
75655;SDS011;64252;51.094;13.714;2022-11-04T13:01:02;5.68;;;2.97;;
75655;SDS011;64252;51.094;13.714;2022-11-04T13:03:43;6.13;;;3.25;;
75655;SDS011;64252;51.094;13.714;2022-11-04T13:06:33;8.25;;;3.92;;
75655;SDS011;64252;51.094;13.714;2022-11-04T13:09:11;9.50;;;3.83;;
75655;SDS011;64252;51.094;13.714;2022-11-04T13:12:23;7.93;;;3.63;;
75655;SDS011;64252;51.094;13.714;2022-11-04T13:14:47;10.35;;;4.25;;
75655;SDS011;64252;51.094;13.714;2022-11-04T13:17:18;7.43;;;3.67;;
75655;SDS011;64252;51.094;13.714;2022-11-04T13:19:48;6.85;;;4.00;;
75655;SDS011;64252;51.094;13.714;2022-11-04T13:22:21;16.95;;;9.35;;
75655;SDS011;64252;51.094;13.714;2022-11-04T13:27:43;7.63;;;4.65;;
75655;SDS011;64252;51.094;13.714;2022-11-04T13:35:55;8.75;;;4.40;;
75655;SDS011;64252;51.094;13.714;2022-11-04T13:38:31;7.10;;;3.83;;
75655;SDS011;64252;51.094;13.714;2022-11-04T13:43:42;6.88;;;3.58;;
75655;SDS011;64252;51.094;13.714;2022-11-04T13:49:28;6.97;;;3.63;;
75655;SDS011;64252;51.094;13.714;2022-11-04T13:54:42;7.72;;;3.85;;
75655;SDS011;64252;51.094;13.714;2022-11-04T13:57:26;7.18;;;3.72;;
75655;SDS011;64252;51.094;13.714;2022-11-04T14:02:39;9.25;;;4.65;;
75655;SDS011;64252;51.094;13.714;2022-11-04T14:05:43;9.13;;;4.65;;
75655;SDS011;64252;51.094;13.714;2022-11-04T14:08:15;6.57;;;4.00;;
75655;SDS011;64252;51.094;13.714;2022-11-04T14:16:06;6.50;;;3.70;;
75655;SDS011;64252;51.094;13.714;2022-11-04T14:18:48;8.15;;;4.40;;
75655;SDS011;64252;51.094;13.714;2022-11-04T14:21:16;9.40;;;5.47;;
75655;SDS011;64252;51.094;13.714;2022-11-04T14:23:46;10.05;;;5.10;;
75655;SDS011;64252;51.094;13.714;2022-11-04T14:26:22;9.88;;;4.93;;
75655;SDS011;64252;51.094;13.714;2022-11-04T14:29:06;9.40;;;5.35;;
75655;SDS011;64252;51.094;13.714;2022-11-04T14:31:41;10.38;;;5.50;;
75655;SDS011;64252;51.094;13.714;2022-11-04T14:34:33;10.02;;;5.55;;
75655;SDS011;64252;51.094;13.714;2022-11-04T14:37:01;8.82;;;4.68;;
75655;SDS011;64252;51.094;13.714;2022-11-04T14:39:35;11.27;;;5.05;;
75655;SDS011;64252;51.094;13.714;2022-11-04T14:42:04;11.68;;;5.47;;
75655;SDS011;64252;51.094;13.714;2022-11-04T14:44:43;11.80;;;6.35;;
75655;SDS011;64252;51.094;13.714;2022-11-04T14:49:59;9.18;;;4.72;;
75655;SDS011;64252;51.094;13.714;2022-11-04T14:55:19;10.23;;;4.95;;
75655;SDS011;64252;51.094;13.714;2022-11-04T14:57:51;12.60;;;6.00;;
75655;SDS011;64252;51.094;13.714;2022-11-04T15:00:38;10.65;;;5.32;;
75655;SDS011;64252;51.094;13.714;2022-11-04T15:03:26;13.85;;;5.80;;
75655;SDS011;64252;51.094;13.714;2022-11-04T15:06:00;10.38;;;4.78;;
75655;SDS011;64252;51.094;13.714;2022-11-04T15:13:26;9.10;;;4.60;;
75655;SDS011;64252;51.094;13.714;2022-11-04T15:15:52;8.80;;;4.72;;
75655;SDS011;64252;51.094;13.714;2022-11-04T15:18:21;10.05;;;4.93;;
75655;SDS011;64252;51.094;13.714;2022-11-04T15:20:55;8.13;;;4.38;;
75655;SDS011;64252;51.094;13.714;2022-11-04T15:23:30;7.90;;;4.25;;
75655;SDS011;64252;51.094;13.714;2022-11-04T15:26:00;8.40;;;4.28;;
75655;SDS011;64252;51.094;13.714;2022-11-04T15:28:28;9.85;;;4.53;;
75655;SDS011;64252;51.094;13.714;2022-11-04T15:33:31;8.25;;;4.00;;
75655;SDS011;64252;51.094;13.714;2022-11-04T15:36:25;8.18;;;4.10;;
75655;SDS011;64252;51.094;13.714;2022-11-04T15:38:56;8.05;;;3.65;;
75655;SDS011;64252;51.094;13.714;2022-11-04T15:41:24;7.82;;;4.00;;
75655;SDS011;64252;51.094;13.714;2022-11-04T15:44:17;7.47;;;4.00;;
75655;SDS011;64252;51.094;13.714;2022-11-04T15:46:47;17.38;;;8.13;;
75655;SDS011;64252;51.094;13.714;2022-11-04T15:49:19;18.42;;;8.40;;
75655;SDS011;64252;51.094;13.714;2022-11-04T15:51:46;21.63;;;8.93;;
75655;SDS011;64252;51.094;13.714;2022-11-04T15:54:35;21.45;;;11.45;;
75655;SDS011;64252;51.094;13.714;2022-11-04T15:57:22;18.75;;;9.00;;
75655;SDS011;64252;51.094;13.714;2022-11-04T15:59:53;13.85;;;8.93;;
75655;SDS011;64252;51.094;13.714;2022-11-04T16:02:32;17.48;;;10.77;;
75655;SDS011;64252;51.094;13.714;2022-11-04T16:07:34;12.35;;;6.28;;
75655;SDS011;64252;51.094;13.714;2022-11-04T16:13:02;11.88;;;7.75;;
75655;SDS011;64252;51.094;13.714;2022-11-04T16:15:45;12.10;;;6.35;;
75655;SDS011;64252;51.094;13.714;2022-11-04T16:18:33;14.07;;;6.53;;
75655;SDS011;64252;51.094;13.714;2022-11-04T16:21:19;11.68;;;6.15;;
75655;SDS011;64252;51.094;13.714;2022-11-04T16:23:46;14.23;;;6.88;;
75655;SDS011;64252;51.094;13.714;2022-11-04T16:26:15;20.08;;;10.35;;
75655;SDS011;64252;51.094;13.714;2022-11-04T16:28:41;19.98;;;10.00;;
75655;SDS011;64252;51.094;13.714;2022-11-04T16:31:08;20.08;;;8.93;;
75655;SDS011;64252;51.094;13.714;2022-11-04T16:33:52;14.25;;;7.22;;
75655;SDS011;64252;51.094;13.714;2022-11-04T16:36:17;14.55;;;8.35;;
75655;SDS011;64252;51.094;13.714;2022-11-04T16:38:52;12.00;;;6.75;;
75655;SDS011;64252;51.094;13.714;2022-11-04T16:41:23;11.98;;;7.07;;
75655;SDS011;64252;51.094;13.714;2022-11-04T16:43:51;11.57;;;6.68;;
75655;SDS011;64252;51.094;13.714;2022-11-04T16:46:17;12.20;;;7.85;;
75655;SDS011;64252;51.094;13.714;2022-11-04T16:48:43;15.00;;;7.63;;
75655;SDS011;64252;51.094;13.714;2022-11-04T16:51:19;13.25;;;7.32;;
75655;SDS011;64252;51.094;13.714;2022-11-04T16:53:47;14.15;;;7.20;;
75655;SDS011;64252;51.094;13.714;2022-11-04T16:56:14;13.38;;;7.55;;
75655;SDS011;64252;51.094;13.714;2022-11-04T16:58:40;14.07;;;7.45;;
75655;SDS011;64252;51.094;13.714;2022-11-04T17:01:11;13.07;;;7.35;;
75655;SDS011;64252;51.094;13.714;2022-11-04T17:03:40;19.15;;;8.85;;
75655;SDS011;64252;51.094;13.714;2022-11-04T17:06:11;14.90;;;7.15;;
75655;SDS011;64252;51.094;13.714;2022-11-04T17:08:38;12.90;;;7.47;;
75655;SDS011;64252;51.094;13.714;2022-11-04T17:11:04;11.10;;;6.88;;